Terminal Aerodrome Forecast
Issued by NWS

Home | Current Version | Previous Version | Text Only | Print | Product List | Glossary Off
Versions: 1 2 3 4 5 6 7 8 9 10 11 12 13 14 15 16 17 18 19 20 21 22 23 24 25

000
FTUS43 KGRB 210000 AAA
TAFMTW
TAF AMD
KMTW 210028Z 2100/2124 25007KT P6SM SCT040 BKN250
     FM210300 29005KT P6SM SCT050 BKN140
     FM210500 32005KT 6SM -SHRA BR SCT035 OVC070
      TEMPO 2105/2107 4SM -TSRA OVC030CB
     FM210900 34009KT 6SM -SHRA BR SCT012 OVC020
      TEMPO 2110/2114 4SM SHRA BR BKN006 OVC012
     FM211500 35013G20KT P6SM BKN020
     FM212000 35012G18KT P6SM SCT030
     FM212300 36007KT P6SM SKC=

USA.gov is the U.S. government's official web portal to all federal, state and local government web resources and services.